sensor_id;sensor_type;location;lat;lon;timestamp;pressure;altitude;pressure_sealevel;temperature;humidity
64230;BME280;50547;49.498;0.092;2023-08-06T00:02:07;1008.71;;;16.64;75.49
64230;BME280;50547;49.498;0.092;2023-08-06T00:04:33;1008.79;;;16.67;75.05
64230;BME280;50547;49.498;0.092;2023-08-06T00:07:03;1008.87;;;16.60;76.09
64230;BME280;50547;49.498;0.092;2023-08-06T00:09:29;1008.85;;;16.66;76.35
64230;BME280;50547;49.498;0.092;2023-08-06T00:11:58;1008.77;;;16.54;75.92
64230;BME280;50547;49.498;0.092;2023-08-06T00:14:27;1008.79;;;16.53;75.93
64230;BME280;50547;49.498;0.092;2023-08-06T00:16:53;1008.89;;;16.51;75.95
64230;BME280;50547;49.498;0.092;2023-08-06T00:19:22;1008.95;;;16.54;75.94
64230;BME280;50547;49.498;0.092;2023-08-06T00:21:51;1009.02;;;16.66;76.31
64230;BME280;50547;49.498;0.092;2023-08-06T00:24:17;1008.97;;;16.72;76.49
64230;BME280;50547;49.498;0.092;2023-08-06T00:26:46;1008.93;;;16.66;76.94
64230;BME280;50547;49.498;0.092;2023-08-06T00:29:15;1008.99;;;16.60;76.99
64230;BME280;50547;49.498;0.092;2023-08-06T00:31:41;1008.93;;;16.50;76.47
64230;BME280;50547;49.498;0.092;2023-08-06T00:34:10;1009.14;;;16.47;76.66
64230;BME280;50547;49.498;0.092;2023-08-06T00:36:40;1009.10;;;16.49;76.62
64230;BME280;50547;49.498;0.092;2023-08-06T00:39:09;1009.06;;;16.37;76.75
64230;BME280;50547;49.498;0.092;2023-08-06T00:41:38;1009.22;;;16.37;76.67
64230;BME280;50547;49.498;0.092;2023-08-06T00:44:08;1009.26;;;16.40;76.12
64230;BME280;50547;49.498;0.092;2023-08-06T00:46:38;1009.22;;;16.32;76.63
64230;BME280;50547;49.498;0.092;2023-08-06T00:49:07;1009.26;;;16.29;77.43
64230;BME280;50547;49.498;0.092;2023-08-06T00:51:34;1009.44;;;16.42;77.25
64230;BME280;50547;49.498;0.092;2023-08-06T00:54:03;1009.40;;;16.32;77.23
64230;BME280;50547;49.498;0.092;2023-08-06T00:56:29;1009.28;;;16.32;77.45
64230;BME280;50547;49.498;0.092;2023-08-06T00:58:59;1009.26;;;16.38;77.64
64230;BME280;50547;49.498;0.092;2023-08-06T01:01:28;1009.34;;;16.37;77.95
64230;BME280;50547;49.498;0.092;2023-08-06T01:03:57;1009.42;;;16.29;78.58
64230;BME280;50547;49.498;0.092;2023-08-06T01:06:35;1009.40;;;16.34;77.96
64230;BME280;50547;49.498;0.092;2023-08-06T01:09:17;1009.47;;;16.21;78.19
64230;BME280;50547;49.498;0.092;2023-08-06T01:11:58;1009.30;;;16.20;78.21
64230;BME280;50547;49.498;0.092;2023-08-06T01:14:31;1009.47;;;16.18;78.40
64230;BME280;50547;49.498;0.092;2023-08-06T01:17:04;1009.47;;;16.08;77.54
64230;BME280;50547;49.498;0.092;2023-08-06T01:19:33;1009.38;;;16.12;77.09
64230;BME280;50547;49.498;0.092;2023-08-06T01:22:03;1009.55;;;16.02;77.33
64230;BME280;50547;49.498;0.092;2023-08-06T01:24:32;1009.46;;;16.05;76.92
64230;BME280;50547;49.498;0.092;2023-08-06T01:27:07;1009.46;;;16.06;77.54
64230;BME280;50547;49.498;0.092;2023-08-06T01:29:41;1009.53;;;15.99;77.59
64230;BME280;50547;49.498;0.092;2023-08-06T01:32:14;1009.53;;;16.06;77.17
64230;BME280;50547;49.498;0.092;2023-08-06T01:34:46;1009.61;;;16.09;76.51
64230;BME280;50547;49.498;0.092;2023-08-06T01:37:17;1009.51;;;16.18;76.32
64230;BME280;50547;49.498;0.092;2023-08-06T01:39:46;1009.67;;;16.19;75.69
64230;BME280;50547;49.498;0.092;2023-08-06T01:42:15;1010.10;;;16.19;75.86
64230;BME280;50547;49.498;0.092;2023-08-06T01:44:44;1009.91;;;16.11;76.09
64230;BME280;50547;49.498;0.092;2023-08-06T01:47:14;1009.81;;;16.12;75.85
64230;BME280;50547;49.498;0.092;2023-08-06T01:49:43;1009.94;;;16.22;75.75
64230;BME280;50547;49.498;0.092;2023-08-06T01:52:12;1009.87;;;16.10;75.81
64230;BME280;50547;49.498;0.092;2023-08-06T01:54:41;1009.83;;;16.09;75.76
64230;BME280;50547;49.498;0.092;2023-08-06T01:57:10;1009.83;;;16.20;75.98
64230;BME280;50547;49.498;0.092;2023-08-06T01:59:39;1009.61;;;16.19;75.73
64230;BME280;50547;49.498;0.092;2023-08-06T02:02:09;1009.81;;;16.31;75.69
64230;BME280;50547;49.498;0.092;2023-08-06T02:04:38;1009.81;;;16.26;75.78
64230;BME280;50547;49.498;0.092;2023-08-06T02:07:07;1009.91;;;16.30;75.48
64230;BME280;50547;49.498;0.092;2023-08-06T02:09:37;1009.87;;;16.30;75.48
64230;BME280;50547;49.498;0.092;2023-08-06T02:12:07;1009.94;;;16.38;73.78
64230;BME280;50547;49.498;0.092;2023-08-06T02:14:36;1009.91;;;16.25;73.42
64230;BME280;50547;49.498;0.092;2023-08-06T02:17:05;1009.98;;;16.39;72.33
64230;BME280;50547;49.498;0.092;2023-08-06T02:19:34;1010.06;;;16.46;71.81
64230;BME280;50547;49.498;0.092;2023-08-06T02:22:04;1010.02;;;16.43;72.78
64230;BME280;50547;49.498;0.092;2023-08-06T02:24:33;1010.12;;;16.41;73.90
64230;BME280;50547;49.498;0.092;2023-08-06T02:27:03;1010.02;;;16.34;74.76
64230;BME280;50547;49.498;0.092;2023-08-06T02:29:32;1010.06;;;16.49;74.64
64230;BME280;50547;49.498;0.092;2023-08-06T02:32:01;1010.00;;;16.46;75.03
64230;BME280;50547;49.498;0.092;2023-08-06T02:34:30;1010.08;;;16.45;75.11
64230;BME280;50547;49.498;0.092;2023-08-06T02:36:59;1010.10;;;16.42;74.63
64230;BME280;50547;49.498;0.092;2023-08-06T02:39:28;1010.10;;;16.37;75.34
64230;BME280;50547;49.498;0.092;2023-08-06T02:41:57;1010.14;;;16.41;76.56
64230;BME280;50547;49.498;0.092;2023-08-06T02:44:27;1010.08;;;16.41;76.44
64230;BME280;50547;49.498;0.092;2023-08-06T02:46:56;1010.06;;;16.39;75.84
64230;BME280;50547;49.498;0.092;2023-08-06T02:49:25;1010.02;;;16.29;75.98
64230;BME280;50547;49.498;0.092;2023-08-06T02:51:54;1010.10;;;16.31;75.95
64230;BME280;50547;49.498;0.092;2023-08-06T02:54:23;1010.00;;;16.33;76.44
64230;BME280;50547;49.498;0.092;2023-08-06T02:56:52;1009.96;;;16.30;76.69
64230;BME280;50547;49.498;0.092;2023-08-06T02:59:22;1010.00;;;16.44;76.72
64230;BME280;50547;49.498;0.092;2023-08-06T03:01:51;1010.02;;;16.35;76.60
64230;BME280;50547;49.498;0.092;2023-08-06T03:04:20;1010.10;;;16.38;76.42
64230;BME280;50547;49.498;0.092;2023-08-06T03:06:49;1010.10;;;16.35;76.78
64230;BME280;50547;49.498;0.092;2023-08-06T03:09:18;1010.08;;;16.22;77.83
64230;BME280;50547;49.498;0.092;2023-08-06T03:11:47;1010.12;;;16.34;77.41
64230;BME280;50547;49.498;0.092;2023-08-06T03:14:16;1010.18;;;16.25;76.79
64230;BME280;50547;49.498;0.092;2023-08-06T03:16:45;1010.32;;;16.34;76.28
64230;BME280;50547;49.498;0.092;2023-08-06T03:19:14;1010.26;;;16.18;76.09
64230;BME280;50547;49.498;0.092;2023-08-06T03:21:44;1010.36;;;16.18;76.30
64230;BME280;50547;49.498;0.092;2023-08-06T03:24:13;1010.24;;;16.21;76.73
64230;BME280;50547;49.498;0.092;2023-08-06T03:26:42;1010.39;;;16.21;77.32
64230;BME280;50547;49.498;0.092;2023-08-06T03:29:11;1010.30;;;16.28;77.59
64230;BME280;50547;49.498;0.092;2023-08-06T03:31:40;1010.32;;;16.24;77.29
64230;BME280;50547;49.498;0.092;2023-08-06T03:34:09;1010.28;;;16.29;77.57
64230;BME280;50547;49.498;0.092;2023-08-06T03:36:39;1010.43;;;16.42;77.43
64230;BME280;50547;49.498;0.092;2023-08-06T03:39:08;1010.70;;;16.12;77.61
64230;BME280;50547;49.498;0.092;2023-08-06T03:41:37;1010.66;;;15.99;76.72
64230;BME280;50547;49.498;0.092;2023-08-06T03:44:06;1010.73;;;15.93;76.36
64230;BME280;50547;49.498;0.092;2023-08-06T03:46:35;1010.70;;;15.93;76.13
64230;BME280;50547;49.498;0.092;2023-08-06T03:49:04;1010.85;;;15.95;75.47
64230;BME280;50547;49.498;0.092;2023-08-06T03:51:33;1010.81;;;15.93;75.53
64230;BME280;50547;49.498;0.092;2023-08-06T03:54:02;1010.66;;;15.92;76.63
64230;BME280;50547;49.498;0.092;2023-08-06T03:56:31;1010.75;;;15.84;77.11
64230;BME280;50547;49.498;0.092;2023-08-06T03:59:01;1010.68;;;15.69;80.34
64230;BME280;50547;49.498;0.092;2023-08-06T04:01:30;1010.71;;;15.75;80.87
64230;BME280;50547;49.498;0.092;2023-08-06T04:03:59;1010.95;;;15.62;82.20
64230;BME280;50547;49.498;0.092;2023-08-06T04:06:28;1010.87;;;15.63;82.68
64230;BME280;50547;49.498;0.092;2023-08-06T04:08:57;1010.89;;;15.69;82.93
64230;BME280;50547;49.498;0.092;2023-08-06T04:11:26;1010.79;;;15.66;83.04
64230;BME280;50547;49.498;0.092;2023-08-06T04:13:55;1010.99;;;15.65;83.00
64230;BME280;50547;49.498;0.092;2023-08-06T04:16:24;1011.07;;;15.50;82.17
64230;BME280;50547;49.498;0.092;2023-08-06T04:18:54;1011.01;;;15.66;80.36
64230;BME280;50547;49.498;0.092;2023-08-06T04:21:23;1011.03;;;15.56;79.57
64230;BME280;50547;49.498;0.092;2023-08-06T04:23:53;1011.20;;;15.54;78.23
64230;BME280;50547;49.498;0.092;2023-08-06T04:26:22;1011.18;;;15.50;77.15
64230;BME280;50547;49.498;0.092;2023-08-06T04:28:51;1011.36;;;15.60;76.93
64230;BME280;50547;49.498;0.092;2023-08-06T04:31:21;1011.44;;;15.59;76.66
64230;BME280;50547;49.498;0.092;2023-08-06T04:33:50;1011.36;;;15.57;75.27
64230;BME280;50547;49.498;0.092;2023-08-06T04:36:19;1011.36;;;15.46;73.72
64230;BME280;50547;49.498;0.092;2023-08-06T04:38:49;1011.40;;;15.53;73.50
64230;BME280;50547;49.498;0.092;2023-08-06T04:41:18;1011.36;;;15.48;74.05
64230;BME280;50547;49.498;0.092;2023-08-06T04:43:47;1011.42;;;15.53;74.37
64230;BME280;50547;49.498;0.092;2023-08-06T04:46:16;1011.64;;;15.50;74.51
64230;BME280;50547;49.498;0.092;2023-08-06T04:48:45;1011.46;;;15.54;74.28
64230;BME280;50547;49.498;0.092;2023-08-06T04:51:14;1011.79;;;15.51;74.28
64230;BME280;50547;49.498;0.092;2023-08-06T04:53:43;1011.60;;;15.51;74.27
64230;BME280;50547;49.498;0.092;2023-08-06T04:56:12;1011.77;;;15.59;74.06
64230;BME280;50547;49.498;0.092;2023-08-06T04:58:41;1011.79;;;15.67;74.01
64230;BME280;50547;49.498;0.092;2023-08-06T05:01:11;1011.75;;;15.55;73.94
64230;BME280;50547;49.498;0.092;2023-08-06T05:03:40;1011.71;;;15.56;73.71
64230;BME280;50547;49.498;0.092;2023-08-06T05:06:09;1011.89;;;15.58;74.32
64230;BME280;50547;49.498;0.092;2023-08-06T05:08:38;1011.93;;;15.62;74.73
64230;BME280;50547;49.498;0.092;2023-08-06T05:11:07;1011.77;;;15.45;75.26
64230;BME280;50547;49.498;0.092;2023-08-06T05:13:36;1011.73;;;15.46;74.21
64230;BME280;50547;49.498;0.092;2023-08-06T05:16:05;1011.91;;;15.54;73.21
64230;BME280;50547;49.498;0.092;2023-08-06T05:18:34;1011.97;;;15.62;73.32
64230;BME280;50547;49.498;0.092;2023-08-06T05:21:04;1011.93;;;15.69;74.31
64230;BME280;50547;49.498;0.092;2023-08-06T05:23:33;1012.05;;;15.71;74.24
64230;BME280;50547;49.498;0.092;2023-08-06T05:26:02;1012.16;;;15.72;74.64
64230;BME280;50547;49.498;0.092;2023-08-06T05:28:31;1012.12;;;15.84;74.38
64230;BME280;50547;49.498;0.092;2023-08-06T05:31:03;1012.24;;;15.76;75.18
64230;BME280;50547;49.498;0.092;2023-08-06T05:33:32;1012.26;;;15.78;75.07
64230;BME280;50547;49.498;0.092;2023-08-06T05:36:01;1012.24;;;15.64;75.44
64230;BME280;50547;49.498;0.092;2023-08-06T05:38:30;1012.40;;;15.69;75.15
64230;BME280;50547;49.498;0.092;2023-08-06T05:40:59;1012.38;;;15.89;74.41
64230;BME280;50547;49.498;0.092;2023-08-06T05:43:28;1012.61;;;15.86;73.34
64230;BME280;50547;49.498;0.092;2023-08-06T05:45:57;1012.40;;;15.86;73.99
64230;BME280;50547;49.498;0.092;2023-08-06T05:48:26;1012.44;;;15.90;74.56
64230;BME280;50547;49.498;0.092;2023-08-06T05:50:56;1012.44;;;15.99;74.39
64230;BME280;50547;49.498;0.092;2023-08-06T05:53:25;1012.56;;;15.93;74.92
64230;BME280;50547;49.498;0.092;2023-08-06T05:55:54;1012.42;;;15.89;75.41
64230;BME280;50547;49.498;0.092;2023-08-06T05:58:23;1012.50;;;16.01;74.91
64230;BME280;50547;49.498;0.092;2023-08-06T06:00:52;1012.58;;;15.95;74.66
64230;BME280;50547;49.498;0.092;2023-08-06T06:03:21;1012.65;;;16.23;73.72
64230;BME280;50547;49.498;0.092;2023-08-06T06:05:51;1012.67;;;16.12;74.29
64230;BME280;50547;49.498;0.092;2023-08-06T06:08:20;1012.83;;;16.15;73.52
64230;BME280;50547;49.498;0.092;2023-08-06T06:10:49;1012.81;;;16.31;72.98
64230;BME280;50547;49.498;0.092;2023-08-06T06:13:18;1012.81;;;16.34;74.09
64230;BME280;50547;49.498;0.092;2023-08-06T06:15:47;1012.77;;;16.31;74.40
64230;BME280;50547;49.498;0.092;2023-08-06T06:18:16;1012.75;;;16.17;74.98
64230;BME280;50547;49.498;0.092;2023-08-06T06:20:45;1012.71;;;16.09;75.13
64230;BME280;50547;49.498;0.092;2023-08-06T06:23:14;1012.93;;;16.20;74.53
64230;BME280;50547;49.498;0.092;2023-08-06T06:25:44;1012.81;;;16.15;74.84
64230;BME280;50547;49.498;0.092;2023-08-06T06:28:15;1012.93;;;16.18;74.23
64230;BME280;50547;49.498;0.092;2023-08-06T06:30:45;1012.81;;;15.96;75.59
64230;BME280;50547;49.498;0.092;2023-08-06T06:33:14;1012.97;;;16.14;74.00
64230;BME280;50547;49.498;0.092;2023-08-06T06:35:43;1012.85;;;15.92;74.73
64230;BME280;50547;49.498;0.092;2023-08-06T06:38:13;1012.87;;;15.94;74.17
64230;BME280;50547;49.498;0.092;2023-08-06T06:40:42;1012.93;;;16.20;73.46
64230;BME280;50547;49.498;0.092;2023-08-06T06:43:11;1012.99;;;16.26;72.52
64230;BME280;50547;49.498;0.092;2023-08-06T06:45:40;1012.99;;;16.29;72.61
64230;BME280;50547;49.498;0.092;2023-08-06T06:48:09;1013.21;;;16.43;72.26
64230;BME280;50547;49.498;0.092;2023-08-06T06:50:38;1013.10;;;16.61;72.05
64230;BME280;50547;49.498;0.092;2023-08-06T06:53:07;1013.25;;;16.69;71.93
64230;BME280;50547;49.498;0.092;2023-08-06T06:55:37;1013.35;;;16.90;70.77
64230;BME280;50547;49.498;0.092;2023-08-06T06:58:06;1013.33;;;16.76;71.95
64230;BME280;50547;49.498;0.092;2023-08-06T07:00:35;1013.27;;;16.82;71.50
64230;BME280;50547;49.498;0.092;2023-08-06T07:03:04;1013.29;;;16.65;72.53
64230;BME280;50547;49.498;0.092;2023-08-06T07:05:34;1013.33;;;16.59;72.27
64230;BME280;50547;49.498;0.092;2023-08-06T07:08:04;1013.54;;;16.91;70.84
64230;BME280;50547;49.498;0.092;2023-08-06T07:10:33;1013.44;;;16.84;71.04
64230;BME280;50547;49.498;0.092;2023-08-06T07:13:02;1013.46;;;17.17;70.31
64230;BME280;50547;49.498;0.092;2023-08-06T07:15:31;1013.50;;;16.84;71.67
64230;BME280;50547;49.498;0.092;2023-08-06T07:18:01;1013.54;;;16.61;72.43
64230;BME280;50547;49.498;0.092;2023-08-06T07:20:30;1013.62;;;16.85;71.75
64230;BME280;50547;49.498;0.092;2023-08-06T07:23:00;1013.58;;;16.71;71.39
64230;BME280;50547;49.498;0.092;2023-08-06T07:25:29;1013.56;;;16.71;70.65
64230;BME280;50547;49.498;0.092;2023-08-06T07:27:58;1013.66;;;16.77;70.91
64230;BME280;50547;49.498;0.092;2023-08-06T07:30:27;1013.68;;;17.06;69.68
64230;BME280;50547;49.498;0.092;2023-08-06T07:32:56;1013.66;;;17.22;69.85
64230;BME280;50547;49.498;0.092;2023-08-06T07:35:28;1013.74;;;17.28;70.57
64230;BME280;50547;49.498;0.092;2023-08-06T07:37:57;1013.70;;;17.27;70.74
64230;BME280;50547;49.498;0.092;2023-08-06T07:40:27;1013.76;;;17.22;70.61
64230;BME280;50547;49.498;0.092;2023-08-06T07:42:56;1013.78;;;17.10;71.02
64230;BME280;50547;49.498;0.092;2023-08-06T07:45:25;1013.80;;;17.16;69.74
64230;BME280;50547;49.498;0.092;2023-08-06T07:47:54;1013.74;;;17.11;70.20
64230;BME280;50547;49.498;0.092;2023-08-06T07:50:23;1013.80;;;17.04;69.83
64230;BME280;50547;49.498;0.092;2023-08-06T07:52:52;1013.80;;;17.20;69.48
64230;BME280;50547;49.498;0.092;2023-08-06T07:55:22;1013.78;;;17.41;69.10
64230;BME280;50547;49.498;0.092;2023-08-06T07:57:51;1013.82;;;17.37;68.98
64230;BME280;50547;49.498;0.092;2023-08-06T08:00:20;1013.91;;;17.53;69.07
64230;BME280;50547;49.498;0.092;2023-08-06T08:02:50;1013.88;;;17.51;69.50
64230;BME280;50547;49.498;0.092;2023-08-06T08:05:19;1013.80;;;17.45;69.70
64230;BME280;50547;49.498;0.092;2023-08-06T08:07:48;1013.88;;;17.39;70.49
64230;BME280;50547;49.498;0.092;2023-08-06T08:10:18;1013.93;;;17.41;69.05
64230;BME280;50547;49.498;0.092;2023-08-06T08:12:47;1013.93;;;17.21;69.51
64230;BME280;50547;49.498;0.092;2023-08-06T08:15:16;1013.90;;;17.47;69.24
64230;BME280;50547;49.498;0.092;2023-08-06T08:17:42;1013.88;;;17.89;68.05
64230;BME280;50547;49.498;0.092;2023-08-06T08:20:12;1013.88;;;17.93;68.76
64230;BME280;50547;49.498;0.092;2023-08-06T08:22:41;1013.93;;;17.77;69.45
64230;BME280;50547;49.498;0.092;2023-08-06T08:25:10;1013.88;;;17.41;71.16
64230;BME280;50547;49.498;0.092;2023-08-06T08:27:39;1013.95;;;17.42;71.88
64230;BME280;50547;49.498;0.092;2023-08-06T08:30:09;1013.80;;;17.34;70.68
64230;BME280;50547;49.498;0.092;2023-08-06T08:32:38;1013.99;;;17.42;70.35
64230;BME280;50547;49.498;0.092;2023-08-06T08:35:08;1014.11;;;17.43;70.98
64230;BME280;50547;49.498;0.092;2023-08-06T08:37:37;1014.11;;;17.62;69.11
64230;BME280;50547;49.498;0.092;2023-08-06T08:40:08;1014.19;;;17.19;70.60
64230;BME280;50547;49.498;0.092;2023-08-06T08:42:37;1014.11;;;17.43;69.92
64230;BME280;50547;49.498;0.092;2023-08-06T08:45:11;1014.11;;;17.79;69.13
64230;BME280;50547;49.498;0.092;2023-08-06T08:47:42;1014.05;;;17.67;70.10
64230;BME280;50547;49.498;0.092;2023-08-06T08:50:11;1014.15;;;17.76;69.64
64230;BME280;50547;49.498;0.092;2023-08-06T08:52:40;1014.17;;;17.80;67.94
64230;BME280;50547;49.498;0.092;2023-08-06T08:55:10;1014.17;;;17.99;67.92
64230;BME280;50547;49.498;0.092;2023-08-06T08:57:40;1014.09;;;17.69;70.18
64230;BME280;50547;49.498;0.092;2023-08-06T09:00:09;1014.37;;;17.85;69.24
64230;BME280;50547;49.498;0.092;2023-08-06T09:02:39;1014.19;;;18.28;68.35
64230;BME280;50547;49.498;0.092;2023-08-06T09:05:10;1014.27;;;17.79;68.87
64230;BME280;50547;49.498;0.092;2023-08-06T09:07:42;1014.25;;;17.79;68.65
64230;BME280;50547;49.498;0.092;2023-08-06T09:10:13;1014.31;;;18.18;67.82
64230;BME280;50547;49.498;0.092;2023-08-06T09:12:45;1014.35;;;18.07;68.02
64230;BME280;50547;49.498;0.092;2023-08-06T09:15:15;1014.27;;;18.02;70.38
64230;BME280;50547;49.498;0.092;2023-08-06T09:17:45;1014.40;;;17.88;69.88
64230;BME280;50547;49.498;0.092;2023-08-06T09:20:15;1014.31;;;18.04;67.69
64230;BME280;50547;49.498;0.092;2023-08-06T09:22:45;1014.27;;;18.01;68.46
64230;BME280;50547;49.498;0.092;2023-08-06T09:25:21;1014.35;;;18.35;66.94
64230;BME280;50547;49.498;0.092;2023-08-06T09:27:51;1014.23;;;18.37;68.39
64230;BME280;50547;49.498;0.092;2023-08-06T09:30:29;1014.48;;;18.29;68.98
64230;BME280;50547;49.498;0.092;2023-08-06T09:32:59;1014.29;;;18.21;68.22
64230;BME280;50547;49.498;0.092;2023-08-06T09:35:29;1014.33;;;18.17;68.71
64230;BME280;50547;49.498;0.092;2023-08-06T09:38:05;1014.38;;;18.40;68.28
64230;BME280;50547;49.498;0.092;2023-08-06T09:40:35;1014.25;;;18.55;68.24
64230;BME280;50547;49.498;0.092;2023-08-06T09:43:04;1014.50;;;18.30;69.29
64230;BME280;50547;49.498;0.092;2023-08-06T09:45:34;1014.40;;;18.44;69.10
64230;BME280;50547;49.498;0.092;2023-08-06T09:48:05;1014.27;;;18.46;68.17
64230;BME280;50547;49.498;0.092;2023-08-06T09:50:36;1014.44;;;18.45;67.90
64230;BME280;50547;49.498;0.092;2023-08-06T09:53:07;1014.44;;;18.43;69.37
64230;BME280;50547;49.498;0.092;2023-08-06T09:55:37;1014.38;;;17.78;71.19
64230;BME280;50547;49.498;0.092;2023-08-06T09:58:07;1014.38;;;18.00;68.88
64230;BME280;50547;49.498;0.092;2023-08-06T10:00:37;1014.46;;;18.32;67.11
64230;BME280;50547;49.498;0.092;2023-08-06T10:03:07;1014.40;;;18.54;67.81
64230;BME280;50547;49.498;0.092;2023-08-06T10:05:38;1014.46;;;18.60;69.18
64230;BME280;50547;49.498;0.092;2023-08-06T10:08:08;1014.48;;;18.09;71.88
64230;BME280;50547;49.498;0.092;2023-08-06T10:10:38;1014.56;;;18.17;71.13
64230;BME280;50547;49.498;0.092;2023-08-06T10:13:07;1014.35;;;18.11;70.67
64230;BME280;50547;49.498;0.092;2023-08-06T10:15:37;1014.58;;;17.79;69.71
64230;BME280;50547;49.498;0.092;2023-08-06T10:18:06;1014.62;;;17.87;69.61
64230;BME280;50547;49.498;0.092;2023-08-06T10:20:37;1014.56;;;18.25;66.69
64230;BME280;50547;49.498;0.092;2023-08-06T10:23:06;1014.60;;;18.54;67.07
64230;BME280;50547;49.498;0.092;2023-08-06T10:25:40;1014.70;;;18.60;66.68
64230;BME280;50547;49.498;0.092;2023-08-06T10:28:10;1014.68;;;18.76;67.28
64230;BME280;50547;49.498;0.092;2023-08-06T10:30:42;1014.64;;;18.54;68.45
64230;BME280;50547;49.498;0.092;2023-08-06T10:33:11;1014.64;;;18.45;69.46
64230;BME280;50547;49.498;0.092;2023-08-06T10:35:41;1014.68;;;18.73;67.81
64230;BME280;50547;49.498;0.092;2023-08-06T10:38:13;1014.70;;;18.82;67.78
64230;BME280;50547;49.498;0.092;2023-08-06T10:40:49;1014.82;;;18.92;67.71
64230;BME280;50547;49.498;0.092;2023-08-06T10:43:25;1014.74;;;18.78;68.91
64230;BME280;50547;49.498;0.092;2023-08-06T10:45:56;1014.64;;;18.44;70.48
64230;BME280;50547;49.498;0.092;2023-08-06T10:48:30;1014.68;;;18.39;71.05
64230;BME280;50547;49.498;0.092;2023-08-06T10:51:00;1014.76;;;18.62;70.47
64230;BME280;50547;49.498;0.092;2023-08-06T10:53:30;1014.80;;;18.49;71.75
64230;BME280;50547;49.498;0.092;2023-08-06T10:55:59;1014.87;;;18.75;69.14
64230;BME280;50547;49.498;0.092;2023-08-06T10:58:31;1014.82;;;18.60;69.64
64230;BME280;50547;49.498;0.092;2023-08-06T11:01:01;1014.76;;;18.47;69.51
64230;BME280;50547;49.498;0.092;2023-08-06T11:03:31;1014.93;;;18.82;68.13
64230;BME280;50547;49.498;0.092;2023-08-06T11:06:01;1015.03;;;18.75;68.15
64230;BME280;50547;49.498;0.092;2023-08-06T11:08:34;1015.07;;;18.56;68.90
64230;BME280;50547;49.498;0.092;2023-08-06T11:11:08;1015.19;;;18.58;69.11
64230;BME280;50547;49.498;0.092;2023-08-06T11:13:37;1014.93;;;18.46;69.57
64230;BME280;50547;49.498;0.092;2023-08-06T11:16:06;1014.97;;;18.53;70.65
64230;BME280;50547;49.498;0.092;2023-08-06T11:18:36;1015.07;;;18.72;68.50
64230;BME280;50547;49.498;0.092;2023-08-06T11:21:06;1015.05;;;19.02;67.26
64230;BME280;50547;49.498;0.092;2023-08-06T11:23:35;1015.01;;;19.04;66.80
64230;BME280;50547;49.498;0.092;2023-08-06T11:26:04;1014.85;;;18.97;67.53
64230;BME280;50547;49.498;0.092;2023-08-06T11:28:33;1014.99;;;18.69;68.78
64230;BME280;50547;49.498;0.092;2023-08-06T11:31:03;1015.13;;;18.71;69.25
64230;BME280;50547;49.498;0.092;2023-08-06T11:33:32;1014.99;;;18.76;70.13
64230;BME280;50547;49.498;0.092;2023-08-06T11:36:01;1014.97;;;18.69;70.05
64230;BME280;50547;49.498;0.092;2023-08-06T11:38:30;1015.15;;;18.63;67.69
64230;BME280;50547;49.498;0.092;2023-08-06T11:41:06;1015.05;;;18.84;68.26
64230;BME280;50547;49.498;0.092;2023-08-06T11:43:32;1014.93;;;19.03;68.40
64230;BME280;50547;49.498;0.092;2023-08-06T11:46:01;1014.99;;;18.86;68.74
64230;BME280;50547;49.498;0.092;2023-08-06T11:48:31;1014.89;;;18.84;69.83
64230;BME280;50547;49.498;0.092;2023-08-06T11:51:00;1014.85;;;18.86;69.04
64230;BME280;50547;49.498;0.092;2023-08-06T11:53:29;1014.91;;;18.54;69.46
64230;BME280;50547;49.498;0.092;2023-08-06T11:55:58;1014.95;;;18.74;67.89
64230;BME280;50547;49.498;0.092;2023-08-06T11:58:29;1014.93;;;18.87;68.99
64230;BME280;50547;49.498;0.092;2023-08-06T12:00:58;1014.85;;;18.71;68.70
64230;BME280;50547;49.498;0.092;2023-08-06T12:03:29;1014.93;;;18.76;67.37
64230;BME280;50547;49.498;0.092;2023-08-06T12:05:58;1014.97;;;18.58;67.10
64230;BME280;50547;49.498;0.092;2023-08-06T12:08:27;1014.99;;;18.67;66.75
64230;BME280;50547;49.498;0.092;2023-08-06T12:10:56;1014.84;;;18.73;67.48
64230;BME280;50547;49.498;0.092;2023-08-06T12:13:25;1014.97;;;18.76;69.16
64230;BME280;50547;49.498;0.092;2023-08-06T12:15:54;1014.97;;;18.59;69.77
64230;BME280;50547;49.498;0.092;2023-08-06T12:18:24;1014.93;;;18.55;68.40
64230;BME280;50547;49.498;0.092;2023-08-06T12:20:53;1014.99;;;18.39;70.08
64230;BME280;50547;49.498;0.092;2023-08-06T12:23:22;1014.87;;;18.60;68.96
64230;BME280;50547;49.498;0.092;2023-08-06T12:25:51;1014.97;;;18.70;69.03
64230;BME280;50547;49.498;0.092;2023-08-06T12:28:20;1014.87;;;18.76;68.18
64230;BME280;50547;49.498;0.092;2023-08-06T12:30:49;1014.93;;;18.94;68.08
64230;BME280;50547;49.498;0.092;2023-08-06T12:33:18;1015.01;;;18.90;68.70
64230;BME280;50547;49.498;0.092;2023-08-06T12:35:47;1014.87;;;18.79;68.27
64230;BME280;50547;49.498;0.092;2023-08-06T12:38:17;1014.97;;;18.92;67.73
64230;BME280;50547;49.498;0.092;2023-08-06T12:40:46;1014.91;;;19.03;68.87
64230;BME280;50547;49.498;0.092;2023-08-06T12:43:15;1014.82;;;18.85;69.17
64230;BME280;50547;49.498;0.092;2023-08-06T12:45:44;1014.99;;;18.85;68.99
64230;BME280;50547;49.498;0.092;2023-08-06T12:48:13;1014.89;;;18.93;69.06
64230;BME280;50547;49.498;0.092;2023-08-06T12:50:42;1014.95;;;18.73;70.94
64230;BME280;50547;49.498;0.092;2023-08-06T12:53:11;1014.82;;;18.80;69.89
64230;BME280;50547;49.498;0.092;2023-08-06T12:55:41;1014.95;;;18.93;68.98
64230;BME280;50547;49.498;0.092;2023-08-06T12:58:10;1014.93;;;19.05;69.27
64230;BME280;50547;49.498;0.092;2023-08-06T13:00:39;1014.95;;;19.08;70.21
64230;BME280;50547;49.498;0.092;2023-08-06T13:03:08;1014.93;;;19.07;68.34
64230;BME280;50547;49.498;0.092;2023-08-06T13:05:38;1014.93;;;19.12;69.24
64230;BME280;50547;49.498;0.092;2023-08-06T13:08:07;1015.11;;;19.19;69.31
64230;BME280;50547;49.498;0.092;2023-08-06T13:10:36;1015.07;;;19.01;70.83
64230;BME280;50547;49.498;0.092;2023-08-06T13:13:05;1014.97;;;18.95;71.61
64230;BME280;50547;49.498;0.092;2023-08-06T13:15:34;1015.05;;;19.21;69.32
64230;BME280;50547;49.498;0.092;2023-08-06T13:18:03;1015.07;;;19.35;70.22
64230;BME280;50547;49.498;0.092;2023-08-06T13:20:33;1015.01;;;19.51;70.06
64230;BME280;50547;49.498;0.092;2023-08-06T13:23:02;1015.09;;;19.11;71.16